createdAt,value
2022-08-31T00:00:43.860Z,19.04
2022-08-31T00:01:44.812Z,19.03
2022-08-31T00:02:46.484Z,19.04
2022-08-31T00:03:43.850Z,19.00
2022-08-31T00:04:44.509Z,19.00
2022-08-31T00:05:43.819Z,18.99
2022-08-31T00:06:43.774Z,18.97
2022-08-31T00:07:44.426Z,18.95
2022-08-31T00:08:44.414Z,18.94
2022-08-31T00:09:44.403Z,18.92
2022-08-31T00:10:45.069Z,18.91
2022-08-31T00:11:44.374Z,18.90
2022-08-31T00:12:44.364Z,18.89
2022-08-31T00:13:44.353Z,18.87
2022-08-31T00:14:44.367Z,18.86
2022-08-31T00:15:44.316Z,18.85
2022-08-31T00:16:44.754Z,18.83
2022-08-31T00:17:43.626Z,18.82
2022-08-31T00:18:43.687Z,18.80
2022-08-31T00:19:43.634Z,18.80
2022-08-31T00:20:44.274Z,18.78
2022-08-31T00:21:44.653Z,18.77
2022-08-31T00:22:44.276Z,18.76
2022-08-31T00:23:44.246Z,18.75
2022-08-31T00:24:43.548Z,18.73
2022-08-31T00:25:44.227Z,18.72
2022-08-31T00:26:44.208Z,18.70
2022-08-31T00:27:43.609Z,18.67
2022-08-31T00:28:44.197Z,18.66
2022-08-31T00:29:43.521Z,18.64
2022-08-31T00:30:43.671Z,18.63
2022-08-31T00:31:44.231Z,18.62
2022-08-31T00:32:44.140Z,18.61
2022-08-31T00:33:43.511Z,18.59
2022-08-31T00:34:43.731Z,18.58
2022-08-31T00:35:44.123Z,18.57
2022-08-31T00:36:44.100Z,18.55
2022-08-31T00:37:43.435Z,18.55
2022-08-31T00:38:44.081Z,18.54
2022-08-31T00:39:43.442Z,18.52
2022-08-31T00:40:44.864Z,18.51
2022-08-31T00:41:43.456Z,18.49
2022-08-31T00:42:44.033Z,18.48
2022-08-31T00:43:43.371Z,18.46
2022-08-31T00:44:44.282Z,18.44
2022-08-31T00:45:43.456Z,18.43
2022-08-31T00:46:43.364Z,18.41
2022-08-31T00:47:43.982Z,18.40
2022-08-31T00:48:43.984Z,18.39
2022-08-31T00:49:43.965Z,18.37
2022-08-31T00:50:43.959Z,18.36
2022-08-31T00:51:43.353Z,18.35
2022-08-31T00:52:43.926Z,18.33
2022-08-31T00:53:43.915Z,18.32
2022-08-31T00:54:43.905Z,18.32
2022-08-31T00:55:43.895Z,18.31
2022-08-31T00:56:43.898Z,18.31
2022-08-31T00:57:43.267Z,18.29
2022-08-31T00:58:43.876Z,18.28
2022-08-31T00:59:43.167Z,18.28
2022-08-31T01:00:45.654Z,18.27
2022-08-31T01:01:43.876Z,18.26
2022-08-31T01:02:43.817Z,18.26
2022-08-31T01:03:43.808Z,18.24
2022-08-31T01:04:43.165Z,18.23
2022-08-31T01:05:43.791Z,18.22
2022-08-31T01:06:43.178Z,18.21
2022-08-31T01:07:43.773Z,18.20
2022-08-31T01:08:43.098Z,18.18
2022-08-31T01:09:53.246Z,18.17
2022-08-31T01:10:45.000Z,18.16
2022-08-31T01:11:43.094Z,18.15
2022-08-31T01:12:43.710Z,18.14
2022-08-31T01:13:43.273Z,18.12
2022-08-31T01:14:43.682Z,18.12
2022-08-31T01:15:43.681Z,18.11
2022-08-31T01:16:43.312Z,18.10
2022-08-31T01:17:43.935Z,18.10
2022-08-31T01:18:42.964Z,18.09
2022-08-31T01:19:45.055Z,18.09
2022-08-31T01:20:48.781Z,18.08
2022-08-31T01:21:44.603Z,18.07
2022-08-31T01:22:43.604Z,18.06
2022-08-31T01:23:42.958Z,18.05
2022-08-31T01:24:43.583Z,18.04
2022-08-31T01:25:42.892Z,18.04
2022-08-31T01:26:42.864Z,18.04
2022-08-31T01:27:43.916Z,18.02
2022-08-31T01:28:43.535Z,18.01
2022-08-31T01:29:43.529Z,17.99
2022-08-31T01:30:43.524Z,17.98
2022-08-31T01:31:43.447Z,17.97
2022-08-31T01:32:43.749Z,17.95
2022-08-31T01:33:43.480Z,17.93
2022-08-31T01:34:43.483Z,17.92
2022-08-31T01:35:42.815Z,17.91
2022-08-31T01:36:42.787Z,17.90
2022-08-31T01:37:43.426Z,17.89
2022-08-31T01:38:43.418Z,17.88
2022-08-31T01:39:43.401Z,17.86
2022-08-31T01:40:45.175Z,17.85
2022-08-31T01:41:43.395Z,17.85
2022-08-31T01:42:42.749Z,17.83
2022-08-31T01:43:43.369Z,17.82
2022-08-31T01:44:42.793Z,17.82
2022-08-31T01:45:42.758Z,17.80
2022-08-31T01:46:44.677Z,17.79
2022-08-31T01:47:42.639Z,17.77
2022-08-31T01:48:43.315Z,17.75
2022-08-31T01:49:42.603Z,17.75
2022-08-31T01:50:43.332Z,17.73
2022-08-31T01:51:43.292Z,17.72
2022-08-31T01:52:42.651Z,17.71
2022-08-31T01:53:45.424Z,17.69
2022-08-31T01:54:43.259Z,17.67
2022-08-31T01:55:42.542Z,17.67
2022-08-31T01:56:43.223Z,17.66
2022-08-31T01:57:42.564Z,17.64
2022-08-31T01:58:42.562Z,17.64
2022-08-31T01:59:43.184Z,17.62
2022-08-31T02:00:42.571Z,17.61
2022-08-31T02:01:42.595Z,17.60
2022-08-31T02:02:43.056Z,17.58
2022-08-31T02:03:42.504Z,17.57
2022-08-31T02:04:43.135Z,17.56
2022-08-31T02:05:42.504Z,17.55
2022-08-31T02:06:43.107Z,17.53
2022-08-31T02:07:43.095Z,17.52
2022-08-31T02:08:43.099Z,17.51
2022-08-31T02:09:42.450Z,17.50
2022-08-31T02:10:42.377Z,17.48
2022-08-31T02:11:42.366Z,17.47
2022-08-31T02:12:42.504Z,17.46
2022-08-31T02:13:44.269Z,17.46
2022-08-31T02:14:42.339Z,17.45
2022-08-31T02:15:42.387Z,17.43
2022-08-31T02:16:43.077Z,17.42
2022-08-31T02:17:42.988Z,17.41
2022-08-31T02:18:42.987Z,17.41
2022-08-31T02:19:42.978Z,17.40
2022-08-31T02:20:42.297Z,17.39
2022-08-31T02:21:44.231Z,17.38
2022-08-31T02:22:42.930Z,17.37
2022-08-31T02:23:42.243Z,17.35
2022-08-31T02:24:42.912Z,17.34
2022-08-31T02:25:42.210Z,17.34
2022-08-31T02:26:42.894Z,17.33
2022-08-31T02:27:42.319Z,17.32
2022-08-31T02:28:42.179Z,17.32
2022-08-31T02:29:42.182Z,17.32
2022-08-31T02:30:42.190Z,17.30
2022-08-31T02:31:42.933Z,17.30
2022-08-31T02:32:42.828Z,17.29
2022-08-31T02:33:42.792Z,17.29
2022-08-31T02:34:42.170Z,17.27
2022-08-31T02:35:42.114Z,17.27
2022-08-31T02:36:42.787Z,17.26
2022-08-31T02:37:42.773Z,17.25
2022-08-31T02:38:42.770Z,17.24
2022-08-31T02:39:42.453Z,17.23
2022-08-31T02:40:42.152Z,17.23
2022-08-31T02:41:42.724Z,17.22
2022-08-31T02:42:52.827Z,17.21
2022-08-31T02:43:44.969Z,17.20
2022-08-31T02:44:42.951Z,17.19
2022-08-31T02:45:42.675Z,17.18
2022-08-31T02:46:43.049Z,17.17
2022-08-31T02:47:41.996Z,17.16
2022-08-31T02:48:42.657Z,17.15
2022-08-31T02:49:42.640Z,17.14
2022-08-31T02:50:42.628Z,17.14
2022-08-31T02:51:41.974Z,17.13
2022-08-31T02:52:41.938Z,17.12
2022-08-31T02:53:41.929Z,17.11
2022-08-31T02:54:42.607Z,17.10
2022-08-31T02:55:42.586Z,17.09
2022-08-31T02:56:42.567Z,17.08
2022-08-31T02:57:42.038Z,17.08
2022-08-31T02:58:41.869Z,17.06
2022-08-31T02:59:42.544Z,17.05
2022-08-31T03:00:42.531Z,17.04
2022-08-31T03:01:42.591Z,17.03
2022-08-31T03:02:42.559Z,17.02
2022-08-31T03:03:46.594Z,17.02
2022-08-31T03:04:42.814Z,17.01
2022-08-31T03:05:41.798Z,17.00
2022-08-31T03:06:42.462Z,16.99
2022-08-31T03:07:42.441Z,16.98
2022-08-31T03:08:42.452Z,16.98
2022-08-31T03:09:41.776Z,16.97
2022-08-31T03:10:42.432Z,16.96
2022-08-31T03:11:41.762Z,16.95
2022-08-31T03:12:42.414Z,16.95
2022-08-31T03:13:42.376Z,16.95
2022-08-31T03:14:41.693Z,16.93
2022-08-31T03:15:42.405Z,16.91
2022-08-31T03:16:41.690Z,16.90
2022-08-31T03:17:42.355Z,16.89
2022-08-31T03:18:41.772Z,16.88
2022-08-31T03:19:41.646Z,16.87
2022-08-31T03:20:41.624Z,16.86
2022-08-31T03:21:42.561Z,16.86
2022-08-31T03:22:45.449Z,16.85
2022-08-31T03:23:44.606Z,16.84
2022-08-31T03:24:41.576Z,16.83
2022-08-31T03:25:42.277Z,16.82
2022-08-31T03:26:42.447Z,16.82
2022-08-31T03:27:41.728Z,16.81
2022-08-31T03:28:41.536Z,16.82
2022-08-31T03:29:41.517Z,16.81
2022-08-31T03:30:42.287Z,16.80
2022-08-31T03:31:41.496Z,16.79
2022-08-31T03:32:41.509Z,16.79
2022-08-31T03:33:41.816Z,16.79
2022-08-31T03:34:42.103Z,16.79
2022-08-31T03:35:42.148Z,16.78
2022-08-31T03:36:41.630Z,16.77
2022-08-31T03:37:41.430Z,16.78
2022-08-31T03:38:41.448Z,16.75
2022-08-31T03:39:41.449Z,16.75
2022-08-31T03:40:42.206Z,16.73
2022-08-31T03:41:42.851Z,16.73
2022-08-31T03:42:42.080Z,16.72
2022-08-31T03:43:41.541Z,16.72
2022-08-31T03:44:43.392Z,16.71
2022-08-31T03:45:41.823Z,16.71
2022-08-31T03:46:42.123Z,16.70
2022-08-31T03:47:44.774Z,16.69
2022-08-31T03:48:41.982Z,16.68
2022-08-31T03:49:41.600Z,16.67
2022-08-31T03:50:41.334Z,16.66
2022-08-31T03:51:41.387Z,16.65
2022-08-31T03:52:41.356Z,16.65
2022-08-31T03:53:41.955Z,16.65
2022-08-31T03:54:41.463Z,16.64
2022-08-31T03:55:41.293Z,16.64
2022-08-31T03:56:41.255Z,16.64
2022-08-31T03:57:41.365Z,16.64
2022-08-31T03:58:41.904Z,16.63
2022-08-31T03:59:41.600Z,16.61
2022-08-31T04:00:42.215Z,16.61
2022-08-31T04:01:41.463Z,16.60
2022-08-31T04:02:41.280Z,16.59
2022-08-31T04:03:41.217Z,16.59
2022-08-31T04:04:41.835Z,16.58
2022-08-31T04:05:41.825Z,16.58
2022-08-31T04:06:41.130Z,16.57
2022-08-31T04:07:42.863Z,16.58
2022-08-31T04:08:41.117Z,16.57
2022-08-31T04:09:41.155Z,16.57
2022-08-31T04:10:41.765Z,16.57
2022-08-31T04:11:45.340Z,16.57
2022-08-31T04:12:41.068Z,16.57
2022-08-31T04:13:41.737Z,16.57
2022-08-31T04:14:41.280Z,16.56
2022-08-31T04:15:41.742Z,16.55
2022-08-31T04:16:41.021Z,16.55
2022-08-31T04:17:42.448Z,16.54
2022-08-31T04:18:41.688Z,16.54
2022-08-31T04:19:41.039Z,16.53
2022-08-31T04:20:40.990Z,16.54
2022-08-31T04:21:41.235Z,16.53
2022-08-31T04:22:41.644Z,16.53
2022-08-31T04:23:40.944Z,16.52
2022-08-31T04:24:40.951Z,16.51
2022-08-31T04:25:41.611Z,16.50
2022-08-31T04:26:40.990Z,16.50
2022-08-31T04:27:41.573Z,16.49
2022-08-31T04:28:41.571Z,16.49
2022-08-31T04:29:40.936Z,16.49
2022-08-31T04:30:40.964Z,16.49
2022-08-31T04:31:41.555Z,16.48
2022-08-31T04:32:40.901Z,16.48
2022-08-31T04:33:40.907Z,16.47
2022-08-31T04:34:40.830Z,16.46
2022-08-31T04:35:40.822Z,16.45
2022-08-31T04:36:40.875Z,16.44
2022-08-31T04:37:45.858Z,16.44
2022-08-31T04:38:41.807Z,16.42
2022-08-31T04:39:50.653Z,16.40
2022-08-31T04:40:41.917Z,16.40
2022-08-31T04:41:40.795Z,16.39
2022-08-31T04:42:41.425Z,16.39
2022-08-31T04:43:41.420Z,16.37
2022-08-31T04:44:41.389Z,16.36
2022-08-31T04:45:40.776Z,16.35
2022-08-31T04:46:41.629Z,16.34
2022-08-31T04:47:40.699Z,16.34
2022-08-31T04:48:41.360Z,16.33
2022-08-31T04:49:41.349Z,16.33
2022-08-31T04:50:42.815Z,16.33
2022-08-31T04:51:40.637Z,16.32
2022-08-31T04:52:40.639Z,16.32
2022-08-31T04:53:41.300Z,16.32
2022-08-31T04:54:41.292Z,16.31
2022-08-31T04:55:41.322Z,16.31
2022-08-31T04:56:41.260Z,16.32
2022-08-31T04:57:41.259Z,16.32
2022-08-31T04:58:41.250Z,16.32
2022-08-31T04:59:41.240Z,16.31
2022-08-31T05:00:41.230Z,16.31
2022-08-31T05:01:43.139Z,16.31
2022-08-31T05:02:40.623Z,16.31
2022-08-31T05:03:41.201Z,16.30
2022-08-31T05:04:41.198Z,16.30
2022-08-31T05:05:41.173Z,16.30
2022-08-31T05:06:41.166Z,16.30
2022-08-31T05:07:41.150Z,16.30
2022-08-31T05:08:40.517Z,16.30
2022-08-31T05:09:41.125Z,16.29
2022-08-31T05:10:41.113Z,16.28
2022-08-31T05:11:40.434Z,16.27
2022-08-31T05:12:40.415Z,16.27
2022-08-31T05:13:41.084Z,16.28
2022-08-31T05:14:40.424Z,16.29
2022-08-31T05:15:40.428Z,16.30
2022-08-31T05:16:40.373Z,16.31
2022-08-31T05:17:41.034Z,16.31
2022-08-31T05:18:41.025Z,16.32
2022-08-31T05:19:41.438Z,16.33
2022-08-31T05:20:40.987Z,16.35
2022-08-31T05:21:40.384Z,16.36
2022-08-31T05:22:40.989Z,16.37
2022-08-31T05:23:40.318Z,16.39
2022-08-31T05:24:40.287Z,16.40
2022-08-31T05:25:40.950Z,16.43
2022-08-31T05:26:41.918Z,16.44
2022-08-31T05:27:40.928Z,16.45
2022-08-31T05:28:40.925Z,16.47
2022-08-31T05:29:40.908Z,16.47
2022-08-31T05:30:40.248Z,16.50
2022-08-31T05:31:40.236Z,16.51
2022-08-31T05:32:40.258Z,16.54
2022-08-31T05:33:40.179Z,16.56
2022-08-31T05:34:40.169Z,16.59
2022-08-31T05:35:40.841Z,16.61
2022-08-31T05:36:40.154Z,16.62
2022-08-31T05:37:40.137Z,16.65
2022-08-31T05:38:40.141Z,16.65
2022-08-31T05:39:40.120Z,16.66
2022-08-31T05:40:40.922Z,16.67
2022-08-31T05:41:40.771Z,16.68
2022-08-31T05:42:40.761Z,16.69
2022-08-31T05:43:40.823Z,16.71
2022-08-31T05:44:40.060Z,16.73
2022-08-31T05:45:40.724Z,16.74
2022-08-31T05:46:40.104Z,16.76
2022-08-31T05:47:40.039Z,16.78
2022-08-31T05:48:40.004Z,16.80
2022-08-31T05:49:40.003Z,16.83
2022-08-31T05:50:40.675Z,16.86
2022-08-31T05:51:40.658Z,16.90
2022-08-31T05:52:40.646Z,16.94
2022-08-31T05:53:40.645Z,16.98
2022-08-31T05:54:39.962Z,17.02
2022-08-31T05:55:40.617Z,17.05
2022-08-31T05:56:39.986Z,17.10
2022-08-31T05:57:40.594Z,17.16
2022-08-31T05:58:39.914Z,17.21
2022-08-31T05:59:39.914Z,17.27
2022-08-31T06:00:39.887Z,17.32
2022-08-31T06:01:40.589Z,17.39
2022-08-31T06:02:39.937Z,17.45
2022-08-31T06:03:40.531Z,17.52
2022-08-31T06:04:40.522Z,17.61
2022-08-31T06:05:39.915Z,17.69
2022-08-31T06:06:41.259Z,17.80
2022-08-31T06:07:40.477Z,17.89
2022-08-31T06:08:39.872Z,17.98
2022-08-31T06:09:40.833Z,18.07
2022-08-31T06:10:40.458Z,18.12
2022-08-31T06:11:39.776Z,18.18
2022-08-31T06:12:40.436Z,18.24
2022-08-31T06:13:39.789Z,18.30
2022-08-31T06:14:40.891Z,18.37
2022-08-31T06:15:42.427Z,18.45
2022-08-31T06:16:39.756Z,18.53
2022-08-31T06:17:39.701Z,18.60
2022-08-31T06:18:40.630Z,18.69
2022-08-31T06:19:40.358Z,18.77
2022-08-31T06:20:40.331Z,18.86
2022-08-31T06:21:39.703Z,18.97
2022-08-31T06:22:40.636Z,19.10
2022-08-31T06:23:39.673Z,19.23
2022-08-31T06:24:40.303Z,19.37
2022-08-31T06:25:41.073Z,19.49
2022-08-31T06:26:39.673Z,19.61
2022-08-31T06:27:39.587Z,19.75
2022-08-31T06:28:40.253Z,19.84
2022-08-31T06:29:40.245Z,19.86
2022-08-31T06:30:54.383Z,19.84
2022-08-31T06:31:42.597Z,19.82
2022-08-31T06:32:39.556Z,19.84
2022-08-31T06:33:40.207Z,19.92
2022-08-31T06:34:40.204Z,20.02
2022-08-31T06:35:40.191Z,20.07
2022-08-31T06:36:40.169Z,20.09
2022-08-31T06:37:40.146Z,20.10
2022-08-31T06:38:40.149Z,20.14
2022-08-31T06:39:39.474Z,20.31
2022-08-31T06:40:40.163Z,20.57
2022-08-31T06:41:39.450Z,20.81
2022-08-31T06:42:41.389Z,21.00
2022-08-31T06:43:40.101Z,21.06
2022-08-31T06:44:39.409Z,21.01
2022-08-31T06:45:39.409Z,20.96
2022-08-31T06:46:40.266Z,20.90
2022-08-31T06:47:39.369Z,20.86
2022-08-31T06:48:39.359Z,20.84
2022-08-31T06:49:39.400Z,20.90
2022-08-31T06:50:39.329Z,21.15
2022-08-31T06:51:40.168Z,21.52
2022-08-31T06:52:39.994Z,21.73
2022-08-31T06:53:39.983Z,21.86
2022-08-31T06:54:39.338Z,21.89
2022-08-31T06:55:39.968Z,21.84
2022-08-31T06:56:39.273Z,21.92
2022-08-31T06:57:39.272Z,22.10
2022-08-31T06:58:39.932Z,22.18
2022-08-31T06:59:39.234Z,22.26
2022-08-31T07:00:39.902Z,22.41
2022-08-31T07:01:39.957Z,22.54
2022-08-31T07:02:39.946Z,22.55
2022-08-31T07:03:39.874Z,22.52
2022-08-31T07:04:39.287Z,22.58
2022-08-31T07:05:39.865Z,22.80
2022-08-31T07:06:39.868Z,23.07
2022-08-31T07:07:39.214Z,23.26
2022-08-31T07:08:39.836Z,23.37
2022-08-31T07:09:39.159Z,23.48
2022-08-31T07:10:39.814Z,23.58
2022-08-31T07:11:44.124Z,23.66
2022-08-31T07:12:40.544Z,23.74
2022-08-31T07:13:39.155Z,23.90
2022-08-31T07:14:39.104Z,24.11
2022-08-31T07:15:39.754Z,24.41
2022-08-31T07:16:39.113Z,24.64
2022-08-31T07:17:39.094Z,24.85
2022-08-31T07:18:39.744Z,25.17
2022-08-31T07:19:44.712Z,25.42
2022-08-31T07:20:40.710Z,25.57
2022-08-31T07:21:39.698Z,25.62
2022-08-31T07:22:39.013Z,25.73
2022-08-31T07:23:39.674Z,25.92
2022-08-31T07:24:40.897Z,26.24
2022-08-31T07:25:39.638Z,26.64
2022-08-31T07:26:39.639Z,27.02
2022-08-31T07:27:39.629Z,27.52
2022-08-31T07:28:38.983Z,28.22
2022-08-31T07:29:38.939Z,28.86
2022-08-31T07:30:39.637Z,29.34
2022-08-31T07:31:38.931Z,29.66
2022-08-31T07:32:38.902Z,29.81
2022-08-31T07:33:39.562Z,29.90
2022-08-31T07:34:39.551Z,29.91
2022-08-31T07:35:39.542Z,29.58
2022-08-31T07:36:40.280Z,29.74
2022-08-31T07:37:39.492Z,29.88
2022-08-31T07:38:38.862Z,30.10
2022-08-31T07:39:39.501Z,30.24
2022-08-31T07:40:39.543Z,30.36
2022-08-31T07:41:38.801Z,30.45
2022-08-31T07:42:39.463Z,30.59
2022-08-31T07:43:38.815Z,30.72
2022-08-31T07:44:39.444Z,31.00
2022-08-31T07:45:39.613Z,31.49
2022-08-31T07:46:38.754Z,31.97
2022-08-31T07:47:39.408Z,32.34
2022-08-31T07:48:39.396Z,32.63
2022-08-31T07:49:38.744Z,32.83
2022-08-31T07:50:39.379Z,33.00
2022-08-31T07:51:38.708Z,33.09
2022-08-31T07:52:39.358Z,33.21
2022-08-31T07:53:39.347Z,33.32
2022-08-31T07:54:38.796Z,33.38
2022-08-31T07:55:38.789Z,33.41
2022-08-31T07:56:38.684Z,33.50
2022-08-31T07:57:38.628Z,33.67
2022-08-31T07:58:39.288Z,33.86
2022-08-31T07:59:39.278Z,33.97
2022-08-31T08:00:39.272Z,33.95
2022-08-31T08:01:39.269Z,33.96
2022-08-31T08:02:39.309Z,33.99
2022-08-31T08:03:39.244Z,34.03
2022-08-31T08:04:39.236Z,34.12
2022-08-31T08:05:39.214Z,34.17
2022-08-31T08:06:38.547Z,34.12
2022-08-31T08:07:38.610Z,34.05
2022-08-31T08:08:38.540Z,33.96
2022-08-31T08:09:39.206Z,33.91
2022-08-31T08:10:38.491Z,33.88
2022-08-31T08:11:38.512Z,33.84
2022-08-31T08:12:39.152Z,33.71
2022-08-31T08:13:38.524Z,33.66
2022-08-31T08:14:38.442Z,33.72
2022-08-31T08:15:38.702Z,33.98
2022-08-31T08:16:38.525Z,34.26
2022-08-31T08:17:38.448Z,34.56
2022-08-31T08:18:39.080Z,34.80
2022-08-31T08:19:39.046Z,34.98
2022-08-31T08:20:39.033Z,35.20
2022-08-31T08:21:39.048Z,35.37
2022-08-31T08:22:51.397Z,35.43
2022-08-31T08:23:39.357Z,35.41
2022-08-31T08:24:54.028Z,35.48
2022-08-31T08:25:39.391Z,35.65
2022-08-31T08:26:38.989Z,35.85
2022-08-31T08:27:38.335Z,35.99
2022-08-31T08:28:40.550Z,36.21
2022-08-31T08:29:40.300Z,36.39
2022-08-31T08:30:38.958Z,36.47
2022-08-31T08:31:38.998Z,36.43
2022-08-31T08:32:38.920Z,36.39
2022-08-31T08:33:38.229Z,36.27
2022-08-31T08:34:38.901Z,36.08
2022-08-31T08:35:38.892Z,35.91
2022-08-31T08:36:38.231Z,35.71
2022-08-31T08:37:57.198Z,35.53
2022-08-31T08:38:39.861Z,35.40
2022-08-31T08:39:38.187Z,35.29
2022-08-31T08:40:38.433Z,35.19
2022-08-31T08:41:38.178Z,35.11
2022-08-31T08:42:38.266Z,35.10
2022-08-31T08:43:38.144Z,35.18
2022-08-31T08:44:38.143Z,35.29
2022-08-31T08:45:38.131Z,35.35
2022-08-31T08:46:38.126Z,35.37
2022-08-31T08:47:39.195Z,35.20
2022-08-31T08:48:38.071Z,34.92
2022-08-31T08:49:38.742Z,34.74
2022-08-31T08:50:38.029Z,34.57
2022-08-31T08:51:38.714Z,34.52
2022-08-31T08:52:38.690Z,34.48
2022-08-31T08:53:38.688Z,34.48
2022-08-31T08:54:38.717Z,34.49
2022-08-31T08:55:38.671Z,34.47
2022-08-31T08:56:38.041Z,34.46
2022-08-31T08:57:38.003Z,34.45
2022-08-31T08:58:37.982Z,34.37
2022-08-31T08:59:38.626Z,34.17
2022-08-31T09:00:37.923Z,33.92
2022-08-31T09:01:38.099Z,33.75
2022-08-31T09:02:38.016Z,33.64
2022-08-31T09:03:38.576Z,33.52
2022-08-31T09:04:37.899Z,33.39
2022-08-31T09:05:38.555Z,33.30
2022-08-31T09:06:45.497Z,33.28
2022-08-31T09:07:38.896Z,33.18
2022-08-31T09:08:39.786Z,33.13
2022-08-31T09:09:38.516Z,33.08
2022-08-31T09:10:37.865Z,32.98
2022-08-31T09:11:37.806Z,32.90
2022-08-31T09:12:37.797Z,32.85
2022-08-31T09:13:38.458Z,32.82
2022-08-31T09:14:38.457Z,32.80
2022-08-31T09:15:37.820Z,32.79
2022-08-31T09:16:37.760Z,32.76
2022-08-31T09:17:38.432Z,32.70
2022-08-31T09:18:37.729Z,32.60
2022-08-31T09:19:38.457Z,32.51
2022-08-31T09:20:38.400Z,32.42
2022-08-31T09:21:38.381Z,32.31
2022-08-31T09:22:38.371Z,32.24
2022-08-31T09:23:38.361Z,32.19
2022-08-31T09:24:37.671Z,32.11
2022-08-31T09:25:37.682Z,32.03
2022-08-31T09:26:38.347Z,31.99
2022-08-31T09:27:38.343Z,31.93
2022-08-31T09:28:37.625Z,31.86
2022-08-31T09:29:37.626Z,31.76
2022-08-31T09:30:38.534Z,31.64
2022-08-31T09:31:37.946Z,31.57
2022-08-31T09:32:37.601Z,31.55
2022-08-31T09:33:39.515Z,31.51
2022-08-31T09:34:37.578Z,31.44
2022-08-31T09:35:37.568Z,31.35
2022-08-31T09:36:38.225Z,31.25
2022-08-31T09:37:38.208Z,31.17
2022-08-31T09:38:38.196Z,31.09
2022-08-31T09:39:39.473Z,31.05
2022-08-31T09:40:39.473Z,31.00
2022-08-31T09:41:38.167Z,30.93
2022-08-31T09:42:37.475Z,30.84
2022-08-31T09:43:38.281Z,30.77
2022-08-31T09:44:38.138Z,30.73
2022-08-31T09:45:41.430Z,30.76
2022-08-31T09:46:39.373Z,30.81
2022-08-31T09:47:38.112Z,30.81
2022-08-31T09:48:37.441Z,30.82
2022-08-31T09:49:37.429Z,30.83
2022-08-31T09:50:38.086Z,30.85
2022-08-31T09:51:37.381Z,30.89
2022-08-31T09:52:37.384Z,30.95
2022-08-31T09:53:38.031Z,31.01
2022-08-31T09:54:40.127Z,31.06
2022-08-31T09:55:38.011Z,31.03
2022-08-31T09:56:38.001Z,30.96
2022-08-31T09:57:37.322Z,30.89
2022-08-31T09:58:37.984Z,30.86
2022-08-31T09:59:38.637Z,30.88
2022-08-31T10:00:37.456Z,30.87
2022-08-31T10:01:38.059Z,30.86
2022-08-31T10:02:37.944Z,30.86
2022-08-31T10:03:37.236Z,30.87
2022-08-31T10:04:37.993Z,30.83
2022-08-31T10:05:37.904Z,30.79
2022-08-31T10:06:37.222Z,30.72
2022-08-31T10:07:37.248Z,30.64
2022-08-31T10:08:37.191Z,30.64
2022-08-31T10:09:37.213Z,30.67
2022-08-31T10:10:37.858Z,30.73
2022-08-31T10:11:37.159Z,30.82
2022-08-31T10:12:37.832Z,30.93
2022-08-31T10:13:37.809Z,31.13
2022-08-31T10:14:37.808Z,31.34
2022-08-31T10:15:37.154Z,31.56
2022-08-31T10:16:37.781Z,31.80
2022-08-31T10:17:37.792Z,32.04
2022-08-31T10:18:37.775Z,32.29
2022-08-31T10:19:37.152Z,32.52
2022-08-31T10:20:37.747Z,32.80
2022-08-31T10:21:39.003Z,33.08
2022-08-31T10:22:37.727Z,33.28
2022-08-31T10:23:37.710Z,33.43
2022-08-31T10:24:37.724Z,33.53
2022-08-31T10:25:37.681Z,33.64
2022-08-31T10:26:37.685Z,33.73
2022-08-31T10:27:37.672Z,33.84
2022-08-31T10:28:37.008Z,33.93
2022-08-31T10:29:37.653Z,33.99
2022-08-31T10:30:36.958Z,34.02
2022-08-31T10:31:37.753Z,33.96
2022-08-31T10:32:36.937Z,33.84
2022-08-31T10:33:37.604Z,33.74
2022-08-31T10:34:36.899Z,33.62
2022-08-31T10:35:36.908Z,33.38
2022-08-31T10:36:36.898Z,32.94
2022-08-31T10:37:36.908Z,32.26
2022-08-31T10:38:36.890Z,31.42
2022-08-31T10:39:36.853Z,30.52
2022-08-31T10:40:36.919Z,29.65
2022-08-31T10:41:36.900Z,28.94
2022-08-31T10:42:37.506Z,28.43
2022-08-31T10:43:37.484Z,28.02
2022-08-31T10:44:37.482Z,27.68
2022-08-31T10:45:37.475Z,27.41
2022-08-31T10:46:37.531Z,27.18
2022-08-31T10:47:36.803Z,26.98
2022-08-31T10:48:37.453Z,26.81
2022-08-31T10:49:36.790Z,26.66
2022-08-31T10:50:37.419Z,26.53
2022-08-31T10:51:36.753Z,26.40
2022-08-31T10:52:37.424Z,26.33
2022-08-31T10:53:39.875Z,26.27
2022-08-31T10:54:37.391Z,26.22
2022-08-31T10:55:37.359Z,26.16
2022-08-31T10:56:37.379Z,26.12
2022-08-31T10:57:38.645Z,26.09
2022-08-31T10:58:37.331Z,26.05
2022-08-31T10:59:37.346Z,26.02
2022-08-31T11:00:37.322Z,25.99
2022-08-31T11:01:37.364Z,25.97
2022-08-31T11:02:36.617Z,25.92
2022-08-31T11:03:36.773Z,25.87
2022-08-31T11:04:37.326Z,25.84
2022-08-31T11:05:37.263Z,25.83
2022-08-31T11:06:36.577Z,25.82
2022-08-31T11:07:37.231Z,25.77
2022-08-31T11:08:37.235Z,25.72
2022-08-31T11:09:38.018Z,25.67
2022-08-31T11:10:37.204Z,25.62
2022-08-31T11:11:42.362Z,25.55
2022-08-31T11:12:37.551Z,25.48
2022-08-31T11:13:36.518Z,25.43
2022-08-31T11:14:36.483Z,25.36
2022-08-31T11:15:37.267Z,25.30
2022-08-31T11:16:37.137Z,25.27
2022-08-31T11:17:36.478Z,25.24
2022-08-31T11:18:37.122Z,25.24
2022-08-31T11:19:36.420Z,25.24
2022-08-31T11:20:36.405Z,25.26
2022-08-31T11:21:37.083Z,25.29
2022-08-31T11:22:37.155Z,25.31
2022-08-31T11:23:42.225Z,25.31
2022-08-31T11:24:38.038Z,25.30
2022-08-31T11:25:36.366Z,25.27
2022-08-31T11:26:37.041Z,25.21
2022-08-31T11:27:36.336Z,25.19
2022-08-31T11:28:36.321Z,25.16
2022-08-31T11:29:36.334Z,25.12
2022-08-31T11:30:41.771Z,25.11
2022-08-31T11:31:37.331Z,25.12
2022-08-31T11:32:36.277Z,25.12
2022-08-31T11:33:36.276Z,25.13
2022-08-31T11:34:36.258Z,25.13
2022-08-31T11:35:36.248Z,25.15
2022-08-31T11:36:37.259Z,25.15
2022-08-31T11:37:36.909Z,25.14
2022-08-31T11:38:36.221Z,25.14
2022-08-31T11:39:36.901Z,25.15
2022-08-31T11:40:36.245Z,25.17
2022-08-31T11:41:36.212Z,25.19
2022-08-31T11:42:36.853Z,25.20
2022-08-31T11:43:36.180Z,25.21
2022-08-31T11:44:36.183Z,25.19
2022-08-31T11:45:36.823Z,25.18
2022-08-31T11:46:36.217Z,25.16
2022-08-31T11:47:36.133Z,25.18
2022-08-31T11:48:36.253Z,25.17
2022-08-31T11:49:36.799Z,25.12
2022-08-31T11:50:36.858Z,25.12
2022-08-31T11:51:40.891Z,25.12
2022-08-31T11:52:36.074Z,25.13
2022-08-31T11:53:36.738Z,25.14
2022-08-31T11:54:36.726Z,25.17
2022-08-31T11:55:36.717Z,25.22
2022-08-31T11:56:36.718Z,25.23
2022-08-31T11:57:37.876Z,25.23
2022-08-31T11:58:37.498Z,25.25
2022-08-31T11:59:36.677Z,25.27
2022-08-31T12:00:36.047Z,25.27
2022-08-31T12:01:36.000Z,25.25
2022-08-31T12:02:36.012Z,25.17
2022-08-31T12:03:35.969Z,25.15
2022-08-31T12:04:35.969Z,25.17
2022-08-31T12:05:37.470Z,25.19
2022-08-31T12:06:36.659Z,25.25
2022-08-31T12:07:36.608Z,25.33
2022-08-31T12:08:35.899Z,25.45
2022-08-31T12:09:35.903Z,25.53
2022-08-31T12:10:36.674Z,25.64
2022-08-31T12:11:36.548Z,25.71
2022-08-31T12:12:36.540Z,25.73
2022-08-31T12:13:35.831Z,25.76
2022-08-31T12:14:36.539Z,25.71
2022-08-31T12:15:36.552Z,25.63
2022-08-31T12:16:35.814Z,25.55
2022-08-31T12:17:35.805Z,25.54
2022-08-31T12:18:35.806Z,25.47
2022-08-31T12:19:35.776Z,25.42
2022-08-31T12:20:36.443Z,25.42
2022-08-31T12:21:35.793Z,25.47
2022-08-31T12:22:35.734Z,25.53
2022-08-31T12:23:35.981Z,25.59
2022-08-31T12:24:36.494Z,25.65
2022-08-31T12:25:36.420Z,25.67
2022-08-31T12:26:36.375Z,25.70
2022-08-31T12:27:36.377Z,25.76
2022-08-31T12:28:35.786Z,25.84
2022-08-31T12:29:36.372Z,25.90
2022-08-31T12:30:36.523Z,25.85
2022-08-31T12:31:36.399Z,25.79
2022-08-31T12:32:35.667Z,25.75
2022-08-31T12:33:36.598Z,25.70
2022-08-31T12:34:36.289Z,25.70
2022-08-31T12:35:35.779Z,25.71
2022-08-31T12:36:36.553Z,25.73
2022-08-31T12:37:36.528Z,25.75
2022-08-31T12:38:36.268Z,25.76
2022-08-31T12:39:36.449Z,25.77
2022-08-31T12:40:36.389Z,25.78
2022-08-31T12:41:36.223Z,25.78
2022-08-31T12:42:35.601Z,25.80
2022-08-31T12:43:35.531Z,25.87
2022-08-31T12:44:36.194Z,25.92
2022-08-31T12:45:36.182Z,25.94
2022-08-31T12:46:36.218Z,25.96
2022-08-31T12:47:36.403Z,25.99
2022-08-31T12:48:35.475Z,26.02
2022-08-31T12:49:35.463Z,26.04
2022-08-31T12:50:36.114Z,26.08
2022-08-31T12:51:36.873Z,26.15
2022-08-31T12:52:36.103Z,26.18